createdAt,value
2018-11-01T00:00:00.707Z,19.30
2018-11-01T00:02:28.800Z,19.30
2018-11-01T00:04:56.883Z,19.20
2018-11-01T00:07:25.199Z,19.20
2018-11-01T00:09:53.350Z,19.10
2018-11-01T00:12:21.430Z,19.10
2018-11-01T00:14:49.543Z,19.10
2018-11-01T00:17:17.709Z,19.10
2018-11-01T00:19:46.003Z,19.10
2018-11-01T00:22:14.086Z,19.10
2018-11-01T00:24:42.186Z,19.10
2018-11-01T00:27:10.287Z,19.10
2018-11-01T00:29:38.437Z,19.10
2018-11-01T00:32:06.776Z,19.10
2018-11-01T00:34:34.894Z,19.10
2018-11-01T00:37:03.003Z,19.10
2018-11-01T00:39:31.151Z,19.00
2018-11-01T00:41:59.294Z,19.00
2018-11-01T00:44:27.397Z,19.00
2018-11-01T00:46:55.491Z,19.00
2018-11-01T00:49:23.590Z,19.00
2018-11-01T00:51:51.682Z,19.00
2018-11-01T00:54:19.771Z,19.00
2018-11-01T00:56:47.908Z,19.00
2018-11-01T00:59:16.075Z,19.00
2018-11-01T01:01:44.163Z,19.00
2018-11-01T01:04:12.285Z,18.90
2018-11-01T01:06:40.431Z,18.90
2018-11-01T01:09:10.551Z,18.90
2018-11-01T01:11:38.766Z,18.90
2018-11-01T01:14:07.482Z,18.90
2018-11-01T01:16:35.745Z,18.90
2018-11-01T01:19:04.247Z,18.90
2018-11-01T01:21:32.298Z,18.90
2018-11-01T01:24:00.394Z,18.90
2018-11-01T01:26:28.538Z,18.90
2018-11-01T01:28:56.666Z,18.90
2018-11-01T01:31:24.775Z,18.80
2018-11-01T01:33:52.966Z,18.70
2018-11-01T01:36:21.132Z,18.80
2018-11-01T01:38:49.226Z,18.80
2018-11-01T01:41:17.561Z,18.80
2018-11-01T01:43:45.750Z,18.80
2018-11-01T01:46:14.066Z,18.80
2018-11-01T01:48:42.525Z,18.80
2018-11-01T01:51:10.898Z,18.80
2018-11-01T01:53:39.021Z,18.80
2018-11-01T01:56:07.126Z,18.80
2018-11-01T01:58:35.278Z,18.80
2018-11-01T02:01:03.442Z,18.70
2018-11-01T02:03:31.458Z,18.70
2018-11-01T02:05:59.558Z,18.70
2018-11-01T02:08:27.681Z,18.70
2018-11-01T02:10:55.847Z,18.70
2018-11-01T02:13:23.959Z,18.70
2018-11-01T02:15:52.058Z,18.70
2018-11-01T02:18:20.190Z,18.70
2018-11-01T02:20:48.329Z,18.70
2018-11-01T02:23:16.462Z,18.60
2018-11-01T02:25:44.594Z,18.70
2018-11-01T02:28:14.818Z,18.60
2018-11-01T02:30:42.986Z,18.60
2018-11-01T02:33:11.088Z,18.60
2018-11-01T02:35:39.202Z,18.60
2018-11-01T02:38:07.388Z,18.60
2018-11-01T02:40:35.646Z,18.60
2018-11-01T02:43:03.738Z,18.60
2018-11-01T02:45:31.860Z,18.60
2018-11-01T02:48:00.006Z,18.60
2018-11-01T02:50:28.212Z,18.50
2018-11-01T02:52:56.550Z,18.60
2018-11-01T02:55:24.660Z,18.50
2018-11-01T02:57:52.775Z,18.50
2018-11-01T03:00:20.860Z,18.50
2018-11-01T03:02:49.078Z,18.50
2018-11-01T03:05:17.415Z,18.50
2018-11-01T03:07:45.642Z,18.50
2018-11-01T03:10:14.510Z,18.50
2018-11-01T03:12:42.774Z,18.50
2018-11-01T03:15:12.075Z,18.50
2018-11-01T03:17:40.546Z,18.50
2018-11-01T03:20:09.326Z,18.50
2018-11-01T03:22:37.550Z,18.50
2018-11-01T03:25:06.430Z,18.40
2018-11-01T03:27:34.570Z,18.50
2018-11-01T03:30:02.886Z,18.50
2018-11-01T03:32:31.055Z,18.40
2018-11-01T03:34:59.149Z,18.40
2018-11-01T03:37:27.254Z,18.40
2018-11-01T03:39:55.401Z,18.40
2018-11-01T03:42:23.771Z,18.40
2018-11-01T03:44:51.932Z,18.40
2018-11-01T03:47:20.073Z,18.40
2018-11-01T03:49:48.150Z,18.40
2018-11-01T03:52:16.268Z,18.30
2018-11-01T03:54:44.361Z,18.40
2018-11-01T03:57:12.490Z,18.30
2018-11-01T03:59:40.674Z,18.30
2018-11-01T04:02:08.865Z,18.30
2018-11-01T04:04:37.018Z,18.30
2018-11-01T04:07:05.388Z,18.30
2018-11-01T04:09:33.511Z,18.30
2018-11-01T04:12:01.723Z,18.30
2018-11-01T04:14:29.834Z,18.30
2018-11-01T04:16:57.954Z,18.30
2018-11-01T04:19:26.126Z,18.30
2018-11-01T04:21:58.846Z,18.30
2018-11-01T04:24:27.223Z,18.30
2018-11-01T04:26:55.395Z,18.20
2018-11-01T04:29:23.579Z,18.20
2018-11-01T04:31:51.735Z,18.20
2018-11-01T04:34:19.892Z,18.20
2018-11-01T04:36:48.051Z,18.20
2018-11-01T04:39:16.135Z,18.20
2018-11-01T04:41:44.278Z,18.20
2018-11-01T04:44:12.480Z,18.10
2018-11-01T04:46:40.643Z,18.10
2018-11-01T04:49:09.160Z,18.00
2018-11-01T04:51:37.426Z,18.00
2018-11-01T04:54:05.630Z,18.00
2018-11-01T04:56:33.846Z,18.00
2018-11-01T04:59:02.076Z,18.00
2018-11-01T05:01:30.133Z,18.00
2018-11-01T05:03:58.363Z,18.00
2018-11-01T05:06:26.478Z,18.00
2018-11-01T05:08:54.609Z,18.00
2018-11-01T05:11:22.773Z,17.90
2018-11-01T05:13:50.967Z,18.00
2018-11-01T05:16:19.086Z,18.00
2018-11-01T05:18:47.306Z,18.00
2018-11-01T05:21:16.502Z,17.90
2018-11-01T05:23:44.678Z,17.90
2018-11-01T05:26:12.917Z,17.90
2018-11-01T05:28:41.083Z,17.90
2018-11-01T05:31:09.302Z,17.80
2018-11-01T05:33:37.775Z,17.90
2018-11-01T05:36:06.051Z,17.90
2018-11-01T05:38:34.218Z,17.90
2018-11-01T05:41:02.354Z,17.90
2018-11-01T05:43:30.568Z,17.90
2018-11-01T05:45:59.118Z,17.80
2018-11-01T05:48:27.287Z,17.80
2018-11-01T05:50:55.510Z,17.80
2018-11-01T05:53:23.690Z,17.80
2018-11-01T05:55:51.902Z,17.80
2018-11-01T05:58:20.071Z,17.80
2018-11-01T06:00:48.282Z,17.80
2018-11-01T06:03:16.426Z,17.80
2018-11-01T06:05:44.654Z,17.80
2018-11-01T06:08:16.234Z,17.80
2018-11-01T06:10:44.359Z,17.80
2018-11-01T06:13:12.490Z,17.70
2018-11-01T06:15:40.630Z,17.70
2018-11-01T06:18:08.854Z,17.70
2018-11-01T06:20:37.143Z,17.70
2018-11-01T06:23:05.543Z,17.70
2018-11-01T06:25:33.647Z,17.70
2018-11-01T06:28:02.012Z,17.70
2018-11-01T06:30:30.226Z,17.70
2018-11-01T06:32:58.318Z,17.70
2018-11-01T06:35:29.226Z,17.70
2018-11-01T06:37:57.367Z,17.70
2018-11-01T06:40:25.941Z,17.70
2018-11-01T06:42:54.386Z,17.70
2018-11-01T06:45:23.230Z,17.70
2018-11-01T06:47:51.629Z,17.70
2018-11-01T06:50:23.395Z,17.80
2018-11-01T06:52:51.672Z,17.80
2018-11-01T06:55:19.996Z,17.80
2018-11-01T06:57:48.403Z,17.80
2018-11-01T07:00:16.744Z,17.80
2018-11-01T07:02:44.862Z,17.80
2018-11-01T07:05:14.018Z,17.80
2018-11-01T07:07:42.375Z,17.80
2018-11-01T07:10:12.311Z,17.80
2018-11-01T07:12:40.425Z,17.80
2018-11-01T07:15:09.979Z,17.80
2018-11-01T07:17:38.764Z,17.80
2018-11-01T07:20:07.816Z,17.80
2018-11-01T07:22:36.659Z,17.80
2018-11-01T07:25:05.743Z,17.80
2018-11-01T07:27:33.928Z,17.80
2018-11-01T07:30:02.058Z,17.80
2018-11-01T07:32:30.211Z,17.80
2018-11-01T07:34:58.698Z,17.80
2018-11-01T07:37:26.966Z,17.80
2018-11-01T07:39:55.634Z,17.80
2018-11-01T07:42:23.695Z,17.80
2018-11-01T07:44:51.830Z,17.80
2018-11-01T07:47:19.971Z,17.80
2018-11-01T07:49:48.114Z,17.80
2018-11-01T07:52:17.003Z,17.80
2018-11-01T07:54:45.178Z,17.80
2018-11-01T07:57:13.327Z,17.80
2018-11-01T07:59:41.479Z,17.80
2018-11-01T08:02:09.658Z,17.80
2018-11-01T08:04:38.075Z,17.90
2018-11-01T08:07:06.215Z,17.90
2018-11-01T08:09:34.730Z,17.90
2018-11-01T08:12:03.146Z,17.80
2018-11-01T08:14:31.283Z,17.80
2018-11-01T08:16:59.495Z,17.80
2018-11-01T08:19:27.663Z,17.90
2018-11-01T08:21:55.798Z,17.90
2018-11-01T08:24:23.892Z,17.90
2018-11-01T08:26:52.048Z,17.90
2018-11-01T08:29:21.314Z,17.90
2018-11-01T08:31:49.571Z,17.90
2018-11-01T08:34:17.744Z,17.90
2018-11-01T08:36:45.892Z,17.90
2018-11-01T08:39:14.406Z,18.00
2018-11-01T08:41:42.483Z,18.00
2018-11-01T08:44:10.768Z,18.00
2018-11-01T08:46:39.242Z,18.00
2018-11-01T08:49:07.546Z,18.00
2018-11-01T08:51:35.646Z,18.00
2018-11-01T08:54:03.802Z,18.00
2018-11-01T08:56:31.894Z,18.10
2018-11-01T08:59:00.051Z,18.20
2018-11-01T09:01:28.172Z,18.30
2018-11-01T09:03:56.334Z,18.30
2018-11-01T09:06:24.779Z,18.30
2018-11-01T09:08:52.872Z,18.30
2018-11-01T09:11:20.964Z,18.40
2018-11-01T09:13:49.079Z,18.40
2018-11-01T09:16:17.186Z,18.40
2018-11-01T09:18:45.286Z,18.50
2018-11-01T09:21:14.206Z,18.50
2018-11-01T09:23:42.330Z,18.50
2018-11-01T09:26:10.455Z,18.50
2018-11-01T09:28:38.608Z,18.50
2018-11-01T09:31:06.718Z,18.50
2018-11-01T09:33:35.281Z,18.50
2018-11-01T09:36:03.523Z,18.50
2018-11-01T09:38:32.038Z,18.50
2018-11-01T09:41:00.547Z,18.50
2018-11-01T09:43:28.694Z,18.50
2018-11-01T09:45:56.900Z,18.60
2018-11-01T09:48:25.158Z,18.60
2018-11-01T09:50:53.538Z,18.60
2018-11-01T09:53:22.234Z,18.70
2018-11-01T09:55:50.535Z,18.70
2018-11-01T09:58:50.554Z,18.70
2018-11-01T10:01:18.848Z,18.80
2018-11-01T10:03:47.999Z,18.80
2018-11-01T10:06:16.284Z,18.80
2018-11-01T10:08:44.442Z,18.80
2018-11-01T10:11:12.686Z,18.80
2018-11-01T10:13:40.899Z,18.90
2018-11-01T10:16:09.184Z,18.90
2018-11-01T10:18:37.538Z,19.00
2018-11-01T10:21:06.005Z,19.00
2018-11-01T10:23:34.623Z,19.00
2018-11-01T10:26:02.876Z,19.00
2018-11-01T10:28:32.330Z,19.00
2018-11-01T10:31:00.583Z,19.10
2018-11-01T10:33:28.756Z,19.10
2018-11-01T10:35:57.044Z,19.10
2018-11-01T10:38:25.426Z,19.10
2018-11-01T10:40:53.596Z,19.10
2018-11-01T10:43:22.886Z,19.10
2018-11-01T10:45:51.150Z,19.10
2018-11-01T10:48:19.333Z,19.10
2018-11-01T10:50:48.063Z,19.10
2018-11-01T10:53:16.210Z,19.20
2018-11-01T10:55:44.337Z,19.20
2018-11-01T10:58:12.558Z,19.20
2018-11-01T11:00:46.203Z,19.20
2018-11-01T11:03:14.201Z,19.20
2018-11-01T11:05:42.495Z,19.20
2018-11-01T11:08:10.670Z,19.20
2018-11-01T11:10:38.854Z,19.30
2018-11-01T11:13:07.063Z,19.20
2018-11-01T11:15:35.183Z,19.30
2018-11-01T11:18:03.312Z,19.30
2018-11-01T11:20:31.730Z,19.30
2018-11-01T11:22:59.655Z,19.30
2018-11-01T11:25:27.751Z,19.20
2018-11-01T11:27:56.110Z,19.30
2018-11-01T11:30:24.354Z,19.30
2018-11-01T11:32:53.044Z,19.30
2018-11-01T11:35:21.338Z,19.30
2018-11-01T11:37:49.827Z,19.30
2018-11-01T11:40:18.308Z,19.30
2018-11-01T11:42:46.811Z,19.30
2018-11-01T11:45:15.303Z,19.30
2018-11-01T11:47:44.494Z,19.30
2018-11-01T11:50:15.144Z,19.20
2018-11-01T11:52:44.699Z,19.20
2018-11-01T11:55:14.395Z,19.20
2018-11-01T11:57:42.607Z,19.20
2018-11-01T12:00:13.106Z,19.20
2018-11-01T12:02:41.606Z,19.20
2018-11-01T12:05:10.384Z,19.20
2018-11-01T12:07:45.527Z,19.20
2018-11-01T12:10:14.158Z,19.20
2018-11-01T12:12:42.471Z,19.20
2018-11-01T12:15:10.776Z,19.20
2018-11-01T12:17:39.086Z,19.20
2018-11-01T12:20:09.074Z,19.20
2018-11-01T12:22:37.524Z,19.10
2018-11-01T12:25:06.531Z,19.10
2018-11-01T12:27:34.730Z,19.10
2018-11-01T12:30:03.378Z,19.10
2018-11-01T12:32:31.619Z,19.20
2018-11-01T12:35:00.064Z,19.20
2018-11-01T12:37:29.013Z,19.20
2018-11-01T12:39:57.273Z,18.10
2018-11-01T12:42:25.403Z,19.20
2018-11-01T12:44:59.547Z,19.30
2018-11-01T12:47:28.079Z,19.30
2018-11-01T12:49:56.469Z,19.40
2018-11-01T12:52:25.207Z,19.40
2018-11-01T12:54:53.318Z,19.40
2018-11-01T12:57:21.459Z,19.40
2018-11-01T12:59:49.783Z,19.50
2018-11-01T13:02:18.096Z,19.40
2018-11-01T13:04:46.407Z,19.40
2018-11-01T13:07:17.131Z,19.40
2018-11-01T13:09:45.250Z,19.50
2018-11-01T13:12:13.384Z,19.50
2018-11-01T13:14:41.473Z,19.40
2018-11-01T13:17:09.751Z,19.40
2018-11-01T13:19:38.899Z,19.40
2018-11-01T13:22:07.026Z,19.30
2018-11-01T13:24:35.829Z,19.20
2018-11-01T13:27:04.059Z,19.20
2018-11-01T13:29:32.203Z,19.10
2018-11-01T13:32:00.334Z,19.00
2018-11-01T13:34:28.490Z,19.00
2018-11-01T13:36:56.684Z,19.00
2018-11-01T13:39:24.921Z,18.90
2018-11-01T13:41:53.078Z,18.90
2018-11-01T13:44:21.758Z,18.90
2018-11-01T13:46:49.858Z,18.90
2018-11-01T13:49:18.227Z,18.80
2018-11-01T13:51:46.341Z,18.80
2018-11-01T13:54:14.503Z,18.80
2018-11-01T13:56:42.738Z,18.80
2018-11-01T13:59:10.761Z,18.80
2018-11-01T14:01:38.953Z,18.80
2018-11-01T14:04:07.083Z,18.70
2018-11-01T14:06:35.191Z,18.70
2018-11-01T14:09:05.040Z,18.70
2018-11-01T14:11:33.155Z,18.70
2018-11-01T14:14:01.686Z,18.60
2018-11-01T14:16:29.583Z,18.60
2018-11-01T14:18:57.806Z,18.60
2018-11-01T14:21:25.894Z,18.50
2018-11-01T14:23:54.023Z,18.50
2018-11-01T14:26:22.905Z,18.50
2018-11-01T14:28:51.019Z,18.50
2018-11-01T14:31:19.760Z,18.50
2018-11-01T14:33:47.901Z,18.50
2018-11-01T14:36:16.046Z,18.40
2018-11-01T14:38:44.463Z,18.40
2018-11-01T14:41:12.758Z,18.40
2018-11-01T14:43:40.931Z,18.40
2018-11-01T14:46:09.157Z,18.40
2018-11-01T14:48:37.224Z,18.30
2018-11-01T14:51:05.890Z,18.30
2018-11-01T14:53:34.469Z,18.30
2018-11-01T14:56:03.611Z,18.30
2018-11-01T14:58:31.620Z,18.30
2018-11-01T15:00:58.471Z,18.20
2018-11-01T15:03:27.260Z,18.20
2018-11-01T15:05:55.417Z,18.10
2018-11-01T15:08:23.478Z,18.10
2018-11-01T15:10:51.577Z,18.10
2018-11-01T15:13:19.808Z,18.10
2018-11-01T15:15:47.805Z,18.10
2018-11-01T15:18:16.070Z,18.10
2018-11-01T15:20:44.183Z,18.10
2018-11-01T15:23:12.451Z,18.10
2018-11-01T15:25:40.522Z,18.00
2018-11-01T15:28:08.884Z,18.00
2018-11-01T15:30:37.170Z,18.00
2018-11-01T15:33:05.247Z,18.00
2018-11-01T15:35:33.395Z,18.00
2018-11-01T15:38:01.521Z,18.00
2018-11-01T15:40:29.631Z,18.00
2018-11-01T15:42:57.775Z,18.00
2018-11-01T15:45:25.888Z,18.00
2018-11-01T15:47:54.003Z,18.00
2018-11-01T15:50:22.094Z,18.00
2018-11-01T15:52:50.448Z,17.90
2018-11-01T15:55:18.577Z,17.90
2018-11-01T15:57:46.673Z,17.90
2018-11-01T16:00:15.198Z,17.90
2018-11-01T16:02:44.365Z,17.90
2018-11-01T16:05:13.425Z,17.80
2018-11-01T16:07:41.686Z,17.80
2018-11-01T16:10:10.441Z,17.80
2018-11-01T16:12:39.103Z,17.80
2018-11-01T16:15:10.484Z,17.80
2018-11-01T16:17:38.626Z,17.80
2018-11-01T16:20:07.010Z,17.80
2018-11-01T16:22:35.151Z,17.80
2018-11-01T16:25:03.353Z,17.80
2018-11-01T16:27:31.662Z,17.80
2018-11-01T16:29:59.851Z,17.80
2018-11-01T16:32:28.051Z,17.80
2018-11-01T16:34:56.243Z,17.70
2018-11-01T16:37:24.493Z,17.70
2018-11-01T16:39:52.899Z,17.70
2018-11-01T16:42:21.525Z,17.70
2018-11-01T16:44:49.720Z,17.70
2018-11-01T16:47:17.882Z,17.70
2018-11-01T16:49:46.174Z,17.70
2018-11-01T16:52:14.588Z,17.70
2018-11-01T16:54:43.740Z,17.70
2018-11-01T16:57:12.030Z,17.70
2018-11-01T16:59:40.211Z,17.70
2018-11-01T17:02:08.535Z,17.70
2018-11-01T17:04:36.646Z,17.70
2018-11-01T17:07:05.206Z,17.70
2018-11-01T17:09:33.554Z,17.70
2018-11-01T17:12:01.707Z,17.60
2018-11-01T17:14:32.087Z,17.60
2018-11-01T17:17:04.305Z,17.60
2018-11-01T17:19:32.644Z,17.60
2018-11-01T17:22:00.885Z,17.60
2018-11-01T17:24:29.035Z,17.60
2018-11-01T17:26:57.333Z,17.60
2018-11-01T17:29:25.504Z,17.60
2018-11-01T17:31:53.816Z,17.60
2018-11-01T17:34:22.168Z,17.60
2018-11-01T17:36:50.548Z,17.60
2018-11-01T17:39:18.712Z,17.60
2018-11-01T17:41:46.877Z,17.60
2018-11-01T17:44:15.176Z,17.60
2018-11-01T17:46:43.370Z,17.60
2018-11-01T17:49:11.510Z,17.50
2018-11-01T17:51:39.716Z,17.50
2018-11-01T17:54:12.266Z,17.50
2018-11-01T17:56:40.995Z,17.50
2018-11-01T17:59:09.097Z,17.50
2018-11-01T18:01:37.301Z,17.50
2018-11-01T18:04:06.222Z,17.50
2018-11-01T18:06:34.366Z,17.50
2018-11-01T18:09:02.567Z,17.50
2018-11-01T18:11:30.626Z,17.50
2018-11-01T18:13:58.744Z,17.50
2018-11-01T18:16:26.847Z,17.50
2018-11-01T18:18:54.966Z,17.50
2018-11-01T18:21:23.110Z,17.50
2018-11-01T18:23:51.239Z,17.50
2018-11-01T18:26:19.375Z,17.50
2018-11-01T18:28:47.530Z,17.40
2018-11-01T18:31:15.648Z,17.50
2018-11-01T18:33:43.818Z,17.40
2018-11-01T18:36:11.915Z,17.40
2018-11-01T18:38:40.115Z,17.40
2018-11-01T18:41:08.221Z,17.40
2018-11-01T18:43:36.335Z,17.40
2018-11-01T18:46:04.772Z,17.40
2018-11-01T18:48:32.942Z,17.40
2018-11-01T18:51:00.998Z,17.40
2018-11-01T18:53:29.863Z,17.40
2018-11-01T18:55:58.454Z,17.40
2018-11-01T18:58:26.586Z,17.40
2018-11-01T19:00:54.908Z,17.30
2018-11-01T19:03:29.496Z,17.40
2018-11-01T19:05:58.416Z,17.30
2018-11-01T19:08:26.688Z,17.30
2018-11-01T19:10:54.929Z,17.30
2018-11-01T19:13:23.489Z,17.30
2018-11-01T19:15:51.540Z,17.30
2018-11-01T19:18:19.688Z,17.30
2018-11-01T19:20:47.814Z,17.30
2018-11-01T19:23:15.900Z,17.30
2018-11-01T19:25:44.127Z,17.30
2018-11-01T19:28:12.272Z,17.30
2018-11-01T19:30:40.642Z,17.30
2018-11-01T19:33:10.298Z,17.40
2018-11-01T19:35:38.728Z,17.60
2018-11-01T19:38:07.020Z,17.90
2018-11-01T19:40:35.284Z,18.20
2018-11-01T19:43:03.414Z,18.50
2018-11-01T19:45:31.708Z,18.80
2018-11-01T19:47:59.888Z,19.10
2018-11-01T19:50:28.147Z,19.40
2018-11-01T19:52:56.490Z,19.60
2018-11-01T19:55:24.723Z,20.00
2018-11-01T19:57:52.896Z,20.00
2018-11-01T20:00:21.131Z,20.30
2018-11-01T20:02:56.148Z,20.20
2018-11-01T20:05:25.111Z,20.30
2018-11-01T20:08:01.562Z,20.50
2018-11-01T20:10:31.047Z,20.60
2018-11-01T20:12:59.076Z,20.80
2018-11-01T20:15:27.176Z,20.80
2018-11-01T20:17:55.429Z,20.80
2018-11-01T20:20:23.554Z,20.80
2018-11-01T20:22:51.862Z,20.80
2018-11-01T20:25:19.996Z,20.90
2018-11-01T20:27:48.103Z,21.00
2018-11-01T20:30:16.754Z,21.00
2018-11-01T20:32:45.655Z,20.90
2018-11-01T20:35:15.058Z,20.90
2018-11-01T20:37:43.440Z,20.90
2018-11-01T20:40:11.662Z,21.00
2018-11-01T20:42:40.419Z,21.00
2018-11-01T20:45:09.839Z,20.90
2018-11-01T20:47:38.260Z,20.80
2018-11-01T20:50:07.385Z,20.90
2018-11-01T20:52:35.584Z,20.90
2018-11-01T20:55:03.947Z,20.90
2018-11-01T20:57:32.224Z,20.80
2018-11-01T21:00:01.047Z,20.80
2018-11-01T21:02:29.206Z,20.90
2018-11-01T21:04:57.452Z,21.00
2018-11-01T21:07:25.622Z,20.90
2018-11-01T21:09:53.823Z,20.90
2018-11-01T21:12:21.996Z,21.00
2018-11-01T21:14:50.423Z,21.10
2018-11-01T21:17:18.674Z,21.00
2018-11-01T21:19:46.782Z,21.00
2018-11-01T21:22:15.444Z,20.90
2018-11-01T21:24:44.077Z,21.10
2018-11-01T21:27:12.304Z,21.30
2018-11-01T21:29:40.455Z,21.30
2018-11-01T21:32:09.187Z,21.30
2018-11-01T21:34:38.210Z,21.20
2018-11-01T21:37:06.692Z,21.10
2018-11-01T21:39:34.952Z,21.10
2018-11-01T21:42:03.395Z,21.10
2018-11-01T21:44:31.679Z,21.10
2018-11-01T21:46:59.946Z,21.10
2018-11-01T21:49:28.536Z,21.10
2018-11-01T21:51:57.106Z,21.00
2018-11-01T21:54:25.488Z,21.00
2018-11-01T21:56:53.723Z,21.00
2018-11-01T21:59:21.967Z,20.90
2018-11-01T22:01:50.719Z,20.90
2018-11-01T22:04:18.860Z,20.90
2018-11-01T22:06:46.966Z,20.90
2018-11-01T22:09:15.115Z,20.70
2018-11-01T22:11:43.191Z,20.80
2018-11-01T22:14:12.380Z,20.90
2018-11-01T22:16:40.435Z,20.90
2018-11-01T22:19:08.593Z,20.90
2018-11-01T22:21:36.711Z,21.00
2018-11-01T22:24:05.164Z,20.90
2018-11-01T22:26:33.590Z,20.80
2018-11-01T22:29:01.697Z,20.90
2018-11-01T22:31:29.970Z,20.90
2018-11-01T22:33:58.019Z,20.80
2018-11-01T22:36:26.090Z,20.80
2018-11-01T22:38:54.256Z,20.90
2018-11-01T22:41:22.302Z,20.90
2018-11-01T22:43:50.347Z,20.90
2018-11-01T22:46:18.411Z,20.90
2018-11-01T22:48:46.506Z,20.80
2018-11-01T22:51:15.054Z,20.80
2018-11-01T22:53:43.123Z,20.80
2018-11-01T22:56:11.730Z,20.70
2018-11-01T22:58:39.839Z,20.70
2018-11-01T23:01:07.910Z,20.70
2018-11-01T23:03:36.210Z,20.70
2018-11-01T23:06:04.402Z,20.70
2018-11-01T23:08:32.560Z,20.70
2018-11-01T23:11:00.674Z,20.70
2018-11-01T23:13:28.766Z,20.70
2018-11-01T23:15:56.859Z,20.70
2018-11-01T23:18:24.910Z,20.70
2018-11-01T23:20:52.995Z,20.60
2018-11-01T23:23:21.084Z,20.70
2018-11-01T23:25:49.166Z,20.60
2018-11-01T23:28:17.203Z,20.60
2018-11-01T23:30:45.266Z,20.70
2018-11-01T23:33:13.354Z,20.60
2018-11-01T23:35:41.393Z,20.60
2018-11-01T23:38:14.857Z,20.60
2018-11-01T23:40:48.378Z,20.60
2018-11-01T23:43:21.764Z,20.60
2018-11-01T23:45:55.337Z,20.60
2018-11-01T23:48:22.694Z,20.60
2018-11-01T23:51:05.042Z,20.50
2018-11-01T23:53:37.498Z,20.60
2018-11-01T23:56:05.626Z,20.60
2018-11-01T23:58:33.716Z,20.60
